McRae, Arkansas
Current Conditions -  °F | °C
As of 3:56 AM on Friday 31 Oct 2014 (Local Time) from KSRC Reporting Station
Clear Clear  
Wind Chill: 55°   Ceiling: Unl
Heat Index: 55°   Visibility: 10mi
Dew Point: 44°   Wind: 6mph
Humidity: 67%   Direction: 320°NW
Pressure: 30.05"   Gusts: NA
Location:  35.11°N, 91.82°W
Report Text: KSRC 310856Z AUTO 32005KT 10SM CLR 13/07 A3005 RMK AO2 SLP181 T01280067 51003 TSNO
Loading
Personal Weather Stations






























Interactive Weather Map
Tropical Storm Tracking
New forecast layout! Learn more

10-Day Weather Forecast

Advertisements
Track Severe Weather on mobile